Time;durP1;ratioP1;P1;durP2;ratioP2;P2;SDS_P1;SDS_P2;PMS_P1;PMS_P2;Temp;Humidity;BMP_temperature;BMP_pressure;BME280_temperature;BME280_humidity;BME280_pressure;Samples;Min_cycle;Max_cycle;Signal;HPM_P1;HPM_P2
2021/10/28 00:14:54;;;;;;;316.13;168.30;;;;;;;;;;4995699;28;20093;-51
2021/10/28 00:17:27;;;;;;;339.58;175.55;;;;;;;;;;4995554;28;20026;-51
2021/10/28 00:19:53;;;;;;;271.95;149.32;;;;;;;;;;4995577;28;20034;-51
2021/10/28 00:22:22;;;;;;;244.73;138.55;;;;;;;;;;4995595;28;20030;-52
2021/10/28 00:24:48;;;;;;;231.57;127.70;;;;;;;;;;4995485;28;20034;-52
2021/10/28 00:27:15;;;;;;;217.05;122.07;;;;;;;;;;4995558;28;20047;-53
2021/10/28 00:29:41;;;;;;;212.23;116.32;;;;;;;;;;4995420;28;20113;-51
2021/10/28 00:32:08;;;;;;;190.82;108.32;;;;;;;;;;4995361;28;20034;-51
2021/10/28 00:34:34;;;;;;;175.90;100.07;;;;;;;;;;4995441;28;20105;-50
2021/10/28 00:37:00;;;;;;;166.43;95.95;;;;;;;;;;4994933;28;20442;-52
2021/10/28 00:39:26;;;;;;;159.93;92.78;;;;;;;;;;5006330;28;20475;-51
2021/10/28 00:41:52;;;;;;;140.45;85.05;;;;;;;;;;5016835;28;20029;-51
2021/10/28 00:44:20;;;;;;;132.55;79.22;;;;;;;;;;5016942;28;20474;-51
2021/10/28 00:46:48;;;;;;;135.15;76.72;;;;;;;;;;5016701;28;20060;-50
2021/10/28 00:49:14;;;;;;;123.72;73.22;;;;;;;;;;5016984;28;20033;-50
2021/10/28 00:51:41;;;;;;;119.53;72.90;;;;;;;;;;5016759;28;20030;-51
2021/10/28 00:54:10;;;;;;;116.60;70.85;;;;;;;;;;5016551;28;20096;-51
2021/10/28 00:56:40;;;;;;;121.18;71.63;;;;;;;;;;5016679;28;20030;-51
2021/10/28 00:59:06;;;;;;;111.07;67.18;;;;;;;;;;5016479;28;20026;-51
2021/10/28 01:01:33;;;;;;;116.47;70.40;;;;;;;;;;5016496;28;20034;-51
2021/10/28 01:03:59;;;;;;;110.35;67.40;;;;;;;;;;5016430;28;20022;-51
2021/10/28 01:06:25;;;;;;;112.78;64.60;;;;;;;;;;5016340;28;20041;-51
2021/10/28 01:08:52;;;;;;;116.32;65.68;;;;;;;;;;5016315;28;20375;-51
2021/10/28 01:11:18;;;;;;;118.18;66.78;;;;;;;;;;5016375;28;20378;-50
2021/10/28 01:13:44;;;;;;;114.90;68.50;;;;;;;;;;5016250;28;20109;-51
2021/10/28 01:16:10;;;;;;;116.03;69.53;;;;;;;;;;5016232;28;20474;-50
2021/10/28 01:18:38;;;;;;;119.97;69.75;;;;;;;;;;5015003;28;20034;-51
2021/10/28 01:21:06;;;;;;;115.10;68.10;;;;;;;;;;5016189;28;20025;-50
2021/10/28 01:23:33;;;;;;;112.45;65.50;;;;;;;;;;5015950;28;20509;-51
2021/10/28 01:26:01;;;;;;;113.93;67.85;;;;;;;;;;5016070;28;20037;-50
2021/10/28 01:28:28;;;;;;;116.15;68.65;;;;;;;;;;5016163;28;20021;-50
2021/10/28 01:30:57;;;;;;;126.55;74.00;;;;;;;;;;5015933;28;20018;-51
2021/10/28 01:33:24;;;;;;;119.70;73.20;;;;;;;;;;5015925;28;20058;-51
2021/10/28 01:35:50;;;;;;;119.32;71.07;;;;;;;;;;5015876;28;20490;-50
2021/10/28 01:38:17;;;;;;;124.45;73.57;;;;;;;;;;5015733;28;20449;-51
2021/10/28 01:40:44;;;;;;;125.70;76.75;;;;;;;;;;5015786;28;20135;-50
2021/10/28 01:43:10;;;;;;;125.15;75.30;;;;;;;;;;5015717;28;20026;-51
2021/10/28 01:45:37;;;;;;;127.88;76.20;;;;;;;;;;5015627;28;20382;-50
2021/10/28 01:48:05;;;;;;;132.82;75.75;;;;;;;;;;5015600;28;20037;-51
2021/10/28 01:50:32;;;;;;;129.32;77.53;;;;;;;;;;5015807;28;20418;-50
2021/10/28 01:52:59;;;;;;;127.47;76.65;;;;;;;;;;5015733;28;20395;-51
2021/10/28 01:55:25;;;;;;;134.13;77.00;;;;;;;;;;5015691;28;20018;-51
2021/10/28 01:57:51;;;;;;;131.05;77.35;;;;;;;;;;5015365;28;20061;-51
2021/10/28 02:00:19;;;;;;;139.77;82.97;;;;;;;;;;5015378;28;20394;-51
2021/10/28 02:02:45;;;;;;;147.65;86.72;;;;;;;;;;5015363;28;20383;-51
2021/10/28 02:05:12;;;;;;;145.63;85.60;;;;;;;;;;5015533;28;20022;-51
2021/10/28 02:07:39;;;;;;;144.25;85.63;;;;;;;;;;5015046;28;20030;-51
2021/10/28 02:10:06;;;;;;;149.05;88.75;;;;;;;;;;5015327;28;20152;-51
2021/10/28 02:12:33;;;;;;;161.52;98.03;;;;;;;;;;5015219;28;20026;-51
2021/10/28 02:14:59;;;;;;;177.77;106.93;;;;;;;;;;5015152;28;20030;-51
2021/10/28 02:17:25;;;;;;;179.65;104.68;;;;;;;;;;5015017;28;20072;-51
2021/10/28 02:19:51;;;;;;;160.05;94.97;;;;;;;;;;5014973;28;20432;-51
2021/10/28 02:22:20;;;;;;;151.10;88.85;;;;;;;;;;5014975;28;20026;-51
2021/10/28 02:24:46;;;;;;;159.27;90.40;;;;;;;;;;5014972;28;20018;-51
2021/10/28 02:27:13;;;;;;;153.90;90.60;;;;;;;;;;5014999;28;20478;-51
2021/10/28 02:29:40;;;;;;;153.52;88.53;;;;;;;;;;5014772;28;20029;-52
2021/10/28 02:32:06;;;;;;;149.73;88.00;;;;;;;;;;5014933;28;20026;-51
2021/10/28 02:34:32;;;;;;;147.52;86.40;;;;;;;;;;5015038;28;20029;-53
2021/10/28 02:36:58;;;;;;;142.02;82.88;;;;;;;;;;5014649;28;20046;-51
2021/10/28 02:39:24;;;;;;;149.02;87.40;;;;;;;;;;5014835;28;20498;-51
2021/10/28 02:41:51;;;;;;;142.02;84.60;;;;;;;;;;5014828;28;20554;-51
2021/10/28 02:44:19;;;;;;;144.98;87.80;;;;;;;;;;5014790;28;20022;-51
2021/10/28 02:46:45;;;;;;;153.25;88.47;;;;;;;;;;5014541;28;20494;-51
2021/10/28 02:49:13;;;;;;;159.23;91.68;;;;;;;;;;5014509;28;20474;-51
2021/10/28 02:51:39;;;;;;;148.65;90.60;;;;;;;;;;5014555;28;20470;-51
2021/10/28 02:54:06;;;;;;;159.07;93.28;;;;;;;;;;5014388;28;20035;-51
2021/10/28 02:56:32;;;;;;;152.85;90.45;;;;;;;;;;5014458;28;20033;-51
2021/10/28 02:58:58;;;;;;;152.05;89.72;;;;;;;;;;5014374;28;20018;-51
2021/10/28 03:01:24;;;;;;;157.18;90.85;;;;;;;;;;5014287;28;20029;-52
2021/10/28 03:03:51;;;;;;;164.75;92.32;;;;;;;;;;5014509;28;20038;-51
2021/10/28 03:06:17;;;;;;;159.48;92.47;;;;;;;;;;5014143;28;20041;-51
2021/10/28 03:08:44;;;;;;;155.23;91.90;;;;;;;;;;5014152;28;20470;-51
2021/10/28 03:11:10;;;;;;;163.30;93.03;;;;;;;;;;5014294;28;20025;-51
2021/10/28 03:13:38;;;;;;;168.30;93.28;;;;;;;;;;5014279;28;20394;-51
2021/10/28 03:16:33;;;;;;;171.02;94.25;;;;;;;;;;5014077;28;20034;-51
2021/10/28 03:27:13;;;;;;;175.18;96.30;;;;;;;;;;5014042;28;20084;-51
2021/10/28 03:29:39;;;;;;;168.13;93.68;;;;;;;;;;5014165;28;20469;-51
2021/10/28 03:32:06;;;;;;;182.27;95.10;;;;;;;;;;5013968;28;20026;-51
2021/10/28 03:34:32;;;;;;;178.27;99.57;;;;;;;;;;5013764;28;20068;-52
2021/10/28 03:37:14;;;;;;;184.02;104.03;;;;;;;;;;5013431;28;20092;-50
2021/10/28 03:45:28;;;;;;;216.80;112.93;;;;;;;;;;5013848;28;20479;-50
2021/10/28 04:31:25;;;;;;;209.18;113.53;;;;;;;;;;5070630;28;20546;-52
2021/10/28 04:33:51;;;;;;;223.73;117.22;;;;;;;;;;5070492;28;20025;-53
2021/10/28 04:36:17;;;;;;;214.02;114.25;;;;;;;;;;5070603;28;20044;-52
2021/10/28 04:38:44;;;;;;;224.10;116.28;;;;;;;;;;5070209;28;20043;-52
2021/10/28 04:41:10;;;;;;;201.48;110.75;;;;;;;;;;5070215;28;20477;-52
2021/10/28 04:43:38;;;;;;;206.20;113.00;;;;;;;;;;5070434;28;20384;-52
2021/10/28 04:46:04;;;;;;;225.45;112.68;;;;;;;;;;5070367;28;20021;-52
2021/10/28 04:48:31;;;;;;;213.85;113.18;;;;;;;;;;5069867;28;20036;-51
2021/10/28 04:50:57;;;;;;;223.10;116.93;;;;;;;;;;5070024;28;20033;-52
2021/10/28 04:53:23;;;;;;;226.50;116.35;;;;;;;;;;5070127;28;20431;-52
2021/10/28 04:55:49;;;;;;;244.65;123.60;;;;;;;;;;5070002;28;20017;-52
2021/10/28 04:58:16;;;;;;;259.60;130.50;;;;;;;;;;5069960;28;20028;-52
2021/10/28 05:00:42;;;;;;;277.85;135.77;;;;;;;;;;5068645;28;20024;-51
2021/10/28 05:03:08;;;;;;;265.13;134.10;;;;;;;;;;5069376;28;20021;-51
2021/10/28 05:05:34;;;;;;;246.07;129.05;;;;;;;;;;5069763;28;20025;-51
2021/10/28 05:08:00;;;;;;;260.60;127.57;;;;;;;;;;5069735;28;20025;-52
2021/10/28 05:10:30;;;;;;;256.02;127.13;;;;;;;;;;5069713;28;20050;-52
2021/10/28 05:12:56;;;;;;;261.73;129.35;;;;;;;;;;5069482;28;20017;-51
2021/10/28 05:15:22;;;;;;;272.17;132.25;;;;;;;;;;5069511;28;20046;-52
2021/10/28 05:17:48;;;;;;;273.42;132.57;;;;;;;;;;5069267;28;20446;-52
2021/10/28 05:20:15;;;;;;;301.15;143.20;;;;;;;;;;5069182;28;20413;-51
2021/10/28 05:22:41;;;;;;;285.95;143.95;;;;;;;;;;5069456;28;20031;-52
2021/10/28 05:25:09;;;;;;;280.65;141.55;;;;;;;;;;5069330;28;20024;-51
2021/10/28 05:27:36;;;;;;;257.98;129.32;;;;;;;;;;5069513;28;20078;-51
2021/10/28 05:30:03;;;;;;;251.68;131.43;;;;;;;;;;5064835;28;20098;-52
2021/10/28 05:32:29;;;;;;;227.77;122.25;;;;;;;;;;5056120;28;20028;-51
2021/10/28 05:34:59;;;;;;;207.05;113.85;;;;;;;;;;5055975;28;20036;-52
2021/10/28 05:37:26;;;;;;;197.65;105.95;;;;;;;;;;5055034;28;20028;-51
2021/10/28 05:39:52;;;;;;;187.85;103.30;;;;;;;;;;5056030;28;20032;-51
2021/10/28 05:42:18;;;;;;;188.57;105.07;;;;;;;;;;5055927;28;20108;-52
2021/10/28 05:44:45;;;;;;;237.82;127.88;;;;;;;;;;5055073;28;20143;-52
2021/10/28 05:47:18;;;;;;;211.23;121.35;;;;;;;;;;5055678;28;20488;-52
2021/10/28 05:49:45;;;;;;;187.10;111.25;;;;;;;;;;5055933;28;20474;-52
2021/10/28 05:52:11;;;;;;;192.90;110.70;;;;;;;;;;5055786;28;20040;-52
2021/10/28 05:54:37;;;;;;;205.65;116.03;;;;;;;;;;5055612;28;20017;-52
2021/10/28 05:57:03;;;;;;;227.25;119.97;;;;;;;;;;5055636;28;20017;-53
2021/10/28 05:59:32;;;;;;;203.43;112.35;;;;;;;;;;5055801;28;20045;-51
2021/10/28 06:01:58;;;;;;;189.20;104.22;;;;;;;;;;5055582;28;20017;-54
2021/10/28 06:04:24;;;;;;;191.55;104.32;;;;;;;;;;5055631;28;20029;-53
2021/10/28 06:06:50;;;;;;;172.80;99.90;;;;;;;;;;5055601;28;20021;-54
2021/10/28 06:09:16;;;;;;;171.00;98.97;;;;;;;;;;5055940;28;20017;-53
2021/10/28 06:11:43;;;;;;;158.15;93.32;;;;;;;;;;5055297;28;20020;-54
2021/10/28 06:14:09;;;;;;;138.88;81.70;;;;;;;;;;5055330;28;20107;-54
2021/10/28 06:16:40;;;;;;;143.07;82.88;;;;;;;;;;5055174;28;20150;-54
2021/10/28 06:19:06;;;;;;;147.23;78.80;;;;;;;;;;5054956;28;20045;-54
2021/10/28 06:21:32;;;;;;;122.85;73.22;;;;;;;;;;5055355;28;20048;-54
2021/10/28 06:23:59;;;;;;;122.63;72.70;;;;;;;;;;5055121;28;20024;-54
2021/10/28 06:26:26;;;;;;;108.85;70.47;;;;;;;;;;5055237;28;20029;-54
2021/10/28 06:28:53;;;;;;;86.28;57.72;;;;;;;;;;5054994;28;20025;-53
2021/10/28 06:31:20;;;;;;;86.53;53.58;;;;;;;;;;5054876;28;20056;-54
2021/10/28 06:33:54;;;;;;;85.28;52.60;;;;;;;;;;5054875;28;20032;-53
2021/10/28 06:36:24;;;;;;;81.10;53.13;;;;;;;;;;5055253;28;20056;-54
2021/10/28 06:38:50;;;;;;;83.57;55.60;;;;;;;;;;5054847;28;20060;-54
2021/10/28 06:41:16;;;;;;;93.28;57.58;;;;;;;;;;5054452;28;20052;-54
2021/10/28 06:43:43;;;;;;;122.55;76.70;;;;;;;;;;5054273;28;20036;-56
2021/10/28 06:46:09;;;;;;;116.45;72.95;;;;;;;;;;5054701;28;20021;-55
2021/10/28 06:48:35;;;;;;;101.80;65.10;;;;;;;;;;5037332;28;20039;-54
2021/10/28 06:51:03;;;;;;;96.10;60.75;;;;;;;;;;5054908;28;20028;-54
2021/10/28 06:53:32;;;;;;;90.90;58.88;;;;;;;;;;5054797;28;20033;-56
2021/10/28 06:56:13;;;;;;;85.50;54.50;;;;;;;;;;5054648;28;20031;-54
2021/10/28 07:04:09;;;;;;;78.40;49.45;;;;;;;;;;5054605;28;20389;-54
2021/10/28 07:06:39;;;;;;;71.05;49.65;;;;;;;;;;5054392;28;20492;-54
2021/10/28 07:09:17;;;;;;;74.82;50.90;;;;;;;;;;5054390;28;20017;-55
2021/10/28 07:11:48;;;;;;;86.25;54.97;;;;;;;;;;5054364;28;20017;-55
2021/10/28 07:14:15;;;;;;;90.03;56.40;;;;;;;;;;5054205;28;20025;-55
2021/10/28 07:17:33;;;;;;;80.20;54.08;;;;;;;;;;5054183;28;20029;-55
2021/10/28 07:22:26;;;;;;;69.63;47.25;;;;;;;;;;5054205;28;20095;-55
2021/10/28 07:30:12;;;;;;;66.03;46.25;;;;;;;;;;5053923;28;20103;-55
2021/10/28 07:57:38;;;;;;;44.10;35.95;;;;;;;;;;4972887;28;20074;-56
2021/10/28 08:00:20;;;;;;;51.08;36.28;;;;;;;;;;4973235;28;20047;-56
2021/10/28 08:24:11;;;;;;;44.25;32.63;;;;;;;;;;4953461;29;20172;-53
2021/10/28 08:29:24;;;;;;;41.28;31.65;;;;;;;;;;4991962;28;20040;-53
2021/10/28 08:31:51;;;;;;;41.17;29.75;;;;;;;;;;4991829;28;20522;-53
2021/10/28 08:34:21;;;;;;;36.97;27.65;;;;;;;;;;4992081;28;20039;-53
2021/10/28 08:36:51;;;;;;;33.83;27.88;;;;;;;;;;4992045;28;20050;-53
2021/10/28 08:39:18;;;;;;;36.08;27.23;;;;;;;;;;4991764;28;20034;-53
2021/10/28 08:41:46;;;;;;;35.78;29.35;;;;;;;;;;4991677;28;20035;-53
2021/10/28 08:44:19;;;;;;;41.00;28.83;;;;;;;;;;4990946;28;20038;-53
2021/10/28 08:46:49;;;;;;;37.05;25.98;;;;;;;;;;4992019;28;20117;-53
2021/10/28 08:49:28;;;;;;;37.33;25.25;;;;;;;;;;4991872;28;20035;-53
2021/10/28 09:24:09;;;;;;;34.47;24.00;;;;;;;;;;4976004;28;20190;-54
2021/10/28 09:32:24;;;;;;;28.88;20.95;;;;;;;;;;4986456;28;20085;-57
2021/10/28 09:46:21;;;;;;;27.42;18.80;;;;;;;;;;4936596;29;20531;-55
2021/10/28 09:51:19;;;;;;;30.10;18.77;;;;;;;;;;4957182;28;20390;-52
2021/10/28 09:59:28;;;;;;;35.75;20.80;;;;;;;;;;4994275;28;20426;-53
2021/10/28 10:02:08;;;;;;;29.58;18.38;;;;;;;;;;4994237;28;20113;-52
2021/10/28 10:04:39;;;;;;;;;;;;;;;;;;4994686;28;20030;-53
2021/10/28 10:07:09;;;;;;;35.10;21.90;;;;;;;;;;4994191;28;20378;-53
2021/10/28 10:09:46;;;;;;;28.40;18.95;;;;;;;;;;4994308;28;20126;-52
2021/10/28 10:12:12;;;;;;;34.22;21.83;;;;;;;;;;4993955;28;20034;-52
2021/10/28 10:14:39;;;;;;;35.13;23.02;;;;;;;;;;5055471;28;20060;-53
2021/10/28 10:17:06;;;;;;;27.55;20.23;;;;;;;;;;5055244;28;20024;-52
2021/10/28 10:19:37;;;;;;;36.22;23.17;;;;;;;;;;5055075;28;20056;-54
2021/10/28 11:27:17;;;;;;;34.13;19.65;;;;;;;;;;5054075;28;20485;-51
2021/10/28 12:45:34;;;;;;;28.02;17.75;;;;;;;;;;4975555;28;20041;-51
2021/10/28 12:56:21;;;;;;;;;;;;;;;;;;4968706;28;20061;-57
2021/10/28 13:48:14;;;;;;;29.30;16.20;;;;;;;;;;5035916;28;20083;-51
2021/10/28 13:50:53;;;;;;;27.60;14.93;;;;;;;;;;5035461;28;20028;-51
2021/10/28 13:56:24;;;;;;;26.70;15.75;;;;;;;;;;5036004;28;20030;-55
2021/10/28 14:18:42;;;;;;;33.13;18.67;;;;;;;;;;5032658;28;20417;-47
2021/10/28 14:23:43;;;;;;;32.95;17.90;;;;;;;;;;5033108;28;20026;-46
2021/10/28 15:38:44;;;;;;;82.25;46.60;;;;;;;;;;5012160;28;20037;-51
2021/10/28 16:24:14;;;;;;;111.15;63.20;;;;;;;;;;5010924;28;20201;-52
2021/10/28 16:26:41;;;;;;;124.03;66.45;;;;;;;;;;5043378;28;20029;-52
2021/10/28 16:29:09;;;;;;;122.78;65.53;;;;;;;;;;5052838;28;20377;-53
2021/10/28 16:31:41;;;;;;;115.55;64.25;;;;;;;;;;5051579;28;20035;-51
2021/10/28 16:34:07;;;;;;;126.50;67.55;;;;;;;;;;5052686;28;20027;-50
2021/10/28 16:36:36;;;;;;;129.70;69.43;;;;;;;;;;5052411;28;20024;-50
2021/10/28 16:39:07;;;;;;;124.28;64.68;;;;;;;;;;5052811;28;20017;-51
2021/10/28 16:41:36;;;;;;;132.45;69.53;;;;;;;;;;5052379;28;20526;-50
2021/10/28 16:44:03;;;;;;;198.00;96.97;;;;;;;;;;5052322;28;20021;-50
2021/10/28 16:46:30;;;;;;;183.23;90.07;;;;;;;;;;5052250;28;20055;-50
2021/10/28 16:48:56;;;;;;;142.43;69.28;;;;;;;;;;5052123;28;20025;-51
2021/10/28 16:51:23;;;;;;;137.93;71.05;;;;;;;;;;5052194;28;20523;-51
2021/10/28 16:53:50;;;;;;;214.50;99.88;;;;;;;;;;5052243;28;20013;-51
2021/10/28 16:56:16;;;;;;;266.23;119.68;;;;;;;;;;5052149;28;20108;-50
2021/10/28 16:58:43;;;;;;;242.65;108.10;;;;;;;;;;5052189;28;20142;-51
2021/10/28 17:01:09;;;;;;;154.77;74.40;;;;;;;;;;5052001;28;20029;-51
2021/10/28 17:03:36;;;;;;;125.40;66.70;;;;;;;;;;5052266;28;20031;-51
2021/10/28 17:06:02;;;;;;;125.13;63.35;;;;;;;;;;5052026;28;20388;-51
2021/10/28 17:08:29;;;;;;;140.55;68.05;;;;;;;;;;5052412;28;20024;-51
2021/10/28 17:10:55;;;;;;;135.05;63.90;;;;;;;;;;5051933;28;20018;-51
2021/10/28 17:13:22;;;;;;;167.90;77.18;;;;;;;;;;5049432;28;20032;-50
2021/10/28 17:15:48;;;;;;;189.82;85.50;;;;;;;;;;5052263;28;20568;-51
2021/10/28 17:18:14;;;;;;;200.45;88.03;;;;;;;;;;5051923;28;20060;-51
2021/10/28 17:20:41;;;;;;;171.13;81.53;;;;;;;;;;5049095;28;20060;-50
2021/10/28 17:23:11;;;;;;;167.02;78.25;;;;;;;;;;5052003;28;20020;-51
2021/10/28 17:25:40;;;;;;;184.27;85.83;;;;;;;;;;5052084;28;20017;-51
2021/10/28 17:28:06;;;;;;;214.00;103.20;;;;;;;;;;5055523;28;20768;-51
2021/10/28 17:30:33;;;;;;;244.02;114.90;;;;;;;;;;5055613;28;20025;-51
2021/10/28 17:32:59;;;;;;;312.05;138.13;;;;;;;;;;5055521;28;20084;-50
2021/10/28 17:35:25;;;;;;;279.23;129.70;;;;;;;;;;5055421;28;20047;-51
2021/10/28 17:37:52;;;;;;;257.55;122.10;;;;;;;;;;5055536;28;20016;-51
2021/10/28 17:40:18;;;;;;;220.90;101.38;;;;;;;;;;5055204;28;20029;-51
2021/10/28 17:42:45;;;;;;;202.65;97.68;;;;;;;;;;5055291;28;20020;-51
2021/10/28 17:45:13;;;;;;;143.02;71.70;;;;;;;;;;5055329;28;20053;-51
2021/10/28 17:47:43;;;;;;;123.55;61.38;;;;;;;;;;5053535;28;20432;-51
2021/10/28 17:50:10;;;;;;;124.47;66.13;;;;;;;;;;5054820;28;20037;-51
2021/10/28 17:52:37;;;;;;;109.93;61.30;;;;;;;;;;5053840;28;20393;-51
2021/10/28 17:55:08;;;;;;;135.00;70.95;;;;;;;;;;5055270;28;20496;-52
2021/10/28 17:57:38;;;;;;;148.20;73.45;;;;;;;;;;5052751;28;20029;-51
2021/10/28 18:00:05;;;;;;;145.82;73.05;;;;;;;;;;5054887;28;20033;-50
2021/10/28 18:02:31;;;;;;;156.98;77.50;;;;;;;;;;5052692;28;20051;-50
2021/10/28 18:05:00;;;;;;;153.15;79.18;;;;;;;;;;5054977;28;20488;-50
2021/10/28 18:07:26;;;;;;;158.65;78.40;;;;;;;;;;5053764;28;20408;-50
2021/10/28 18:09:52;;;;;;;154.63;78.38;;;;;;;;;;5053861;28;20017;-50
2021/10/28 18:12:18;;;;;;;168.40;83.93;;;;;;;;;;5053795;28;20055;-50
2021/10/28 18:14:47;;;;;;;146.50;72.32;;;;;;;;;;5053862;28;20025;-50
2021/10/28 18:17:18;;;;;;;120.38;62.35;;;;;;;;;;5053716;28;20412;-50
2021/10/28 18:19:46;;;;;;;118.13;60.40;;;;;;;;;;5053643;28;20049;-50
2021/10/28 18:22:13;;;;;;;138.70;73.40;;;;;;;;;;5055158;28;20033;-50
2021/10/28 18:24:39;;;;;;;180.40;89.53;;;;;;;;;;5053741;28;20477;-50
2021/10/28 18:27:08;;;;;;;180.50;87.35;;;;;;;;;;5053704;28;20037;-49
2021/10/28 18:29:37;;;;;;;173.48;86.35;;;;;;;;;;5053538;28;20021;-50
2021/10/28 18:32:05;;;;;;;202.98;98.18;;;;;;;;;;5052165;28;20021;-50
2021/10/28 18:34:31;;;;;;;220.82;104.05;;;;;;;;;;5053744;28;20380;-49
2021/10/28 18:36:58;;;;;;;193.20;93.30;;;;;;;;;;5053422;28;20488;-50
2021/10/28 18:39:26;;;;;;;169.43;80.13;;;;;;;;;;5053567;28;20508;-49
2021/10/28 18:41:53;;;;;;;158.68;76.13;;;;;;;;;;5053246;28;20033;-49
2021/10/28 18:44:22;;;;;;;149.70;74.25;;;;;;;;;;5051565;28;20029;-49
2021/10/28 18:46:51;;;;;;;146.70;69.65;;;;;;;;;;5053235;28;20099;-50
2021/10/28 18:49:18;;;;;;;121.03;62.33;;;;;;;;;;5050555;28;20036;-49
2021/10/28 18:51:49;;;;;;;113.60;58.38;;;;;;;;;;5053126;28;20491;-50
2021/10/28 18:54:17;;;;;;;109.07;53.30;;;;;;;;;;5053411;28;20017;-49
2021/10/28 18:56:46;;;;;;;101.70;57.00;;;;;;;;;;5053196;28;20025;-50
2021/10/28 18:59:12;;;;;;;101.47;58.10;;;;;;;;;;5054274;28;20029;-50
2021/10/28 19:01:41;;;;;;;96.35;52.13;;;;;;;;;;5054151;28;20044;-51
2021/10/28 19:04:07;;;;;;;101.15;56.42;;;;;;;;;;5053960;28;20033;-51
2021/10/28 19:06:33;;;;;;;119.30;65.18;;;;;;;;;;5054010;28;20021;-52
2021/10/28 19:08:59;;;;;;;147.57;76.05;;;;;;;;;;5053670;28;20024;-50
2021/10/28 19:11:26;;;;;;;127.50;66.50;;;;;;;;;;5053784;28;20027;-51
2021/10/28 19:13:55;;;;;;;113.13;58.13;;;;;;;;;;5053656;28;20025;-51
2021/10/28 19:16:21;;;;;;;110.35;59.40;;;;;;;;;;5053497;28;20094;-51
2021/10/28 19:18:47;;;;;;;121.72;67.55;;;;;;;;;;5053334;28;20397;-51
2021/10/28 19:21:16;;;;;;;108.47;58.72;;;;;;;;;;5053399;28;20052;-50
2021/10/28 19:23:42;;;;;;;103.38;56.45;;;;;;;;;;5053399;28;20025;-50
2021/10/28 19:26:09;;;;;;;118.82;68.95;;;;;;;;;;5053508;28;20013;-50
2021/10/28 19:28:36;;;;;;;100.15;55.90;;;;;;;;;;5053405;28;20499;-50
2021/10/28 19:31:05;;;;;;;95.10;51.70;;;;;;;;;;5053383;28;20033;-49
2021/10/28 19:33:55;;;;;;;98.20;53.55;;;;;;;;;;5053848;28;20021;-50
2021/10/28 19:36:29;;;;;;;87.57;47.15;;;;;;;;;;5053549;28;20481;-50
2021/10/28 19:46:40;;;;;;;141.63;69.13;;;;;;;;;;5053659;28;20047;-50
2021/10/28 19:49:07;;;;;;;133.57;72.97;;;;;;;;;;5053123;28;20029;-50
2021/10/28 19:51:33;;;;;;;129.38;66.82;;;;;;;;;;5051860;28;20044;-51
2021/10/28 19:54:00;;;;;;;111.68;59.20;;;;;;;;;;5053056;28;20385;-50
2021/10/28 19:56:27;;;;;;;101.60;55.55;;;;;;;;;;5053487;28;20028;-49
2021/10/28 19:58:57;;;;;;;108.95;55.42;;;;;;;;;;5031460;28;20238;-48
2021/10/28 20:01:44;;;;;;;104.88;58.10;;;;;;;;;;5022374;28;20037;-49
2021/10/28 20:22:39;;;;;;;104.78;52.03;;;;;;;;;;5021197;28;20076;-49
2021/10/28 20:25:08;;;;;;;89.50;50.53;;;;;;;;;;5021079;28;20026;-49
2021/10/28 20:27:35;;;;;;;90.60;48.53;;;;;;;;;;5020701;28;20037;-48
2021/10/28 20:30:01;;;;;;;101.95;54.15;;;;;;;;;;5021206;28;20488;-48
2021/10/28 20:32:28;;;;;;;89.72;49.08;;;;;;;;;;5023298;28;20071;-49
2021/10/28 20:35:08;;;;;;;89.90;50.15;;;;;;;;;;5021071;28;20473;-49
2021/10/28 20:37:35;;;;;;;92.80;47.83;;;;;;;;;;5020760;28;20029;-48
2021/10/28 20:40:01;;;;;;;95.10;49.15;;;;;;;;;;5030396;28;20352;-48
2021/10/28 20:42:39;;;;;;;95.78;51.13;;;;;;;;;;5020884;28;20056;-49
2021/10/28 20:45:07;;;;;;;95.35;50.97;;;;;;;;;;5020888;28;20024;-49
2021/10/28 20:47:33;;;;;;;90.47;49.53;;;;;;;;;;5020994;28;20040;-49
2021/10/28 20:50:01;;;;;;;106.43;55.15;;;;;;;;;;5020622;28;20141;-48
2021/10/28 20:52:28;;;;;;;98.15;53.08;;;;;;;;;;5020886;28;20442;-49
2021/10/28 20:54:54;;;;;;;89.78;50.58;;;;;;;;;;5020934;28;20462;-49
2021/10/28 20:57:20;;;;;;;89.85;51.13;;;;;;;;;;5022118;28;20026;-54
2021/10/28 20:59:46;;;;;;;94.18;51.80;;;;;;;;;;5021099;28;20024;-54
2021/10/28 21:02:15;;;;;;;101.90;52.53;;;;;;;;;;5023083;28;20116;-52
2021/10/28 21:04:41;;;;;;;105.65;56.80;;;;;;;;;;5026120;28;20060;-52
2021/10/28 21:07:07;;;;;;;110.13;57.97;;;;;;;;;;5026461;28;20053;-50
2021/10/28 21:09:33;;;;;;;108.07;59.20;;;;;;;;;;5027703;28;20026;-52
2021/10/28 21:11:59;;;;;;;95.38;53.85;;;;;;;;;;5024427;28;20025;-50
2021/10/28 21:14:26;;;;;;;98.93;55.42;;;;;;;;;;5025702;28;20034;-50
2021/10/28 21:16:52;;;;;;;104.10;57.70;;;;;;;;;;5024479;28;20747;-50
2021/10/28 21:19:18;;;;;;;111.93;55.70;;;;;;;;;;5024813;28;20378;-50
2021/10/28 21:21:51;;;;;;;95.38;56.10;;;;;;;;;;5024522;28;20456;-49
2021/10/28 21:24:18;;;;;;;105.07;56.58;;;;;;;;;;5025132;28;20358;-49
2021/10/28 21:26:44;;;;;;;103.28;59.85;;;;;;;;;;5024160;28;20629;-49
2021/10/28 21:29:11;;;;;;;101.88;58.70;;;;;;;;;;5025571;28;20124;-49
2021/10/28 21:31:37;;;;;;;102.65;61.13;;;;;;;;;;5023897;28;20098;-49
2021/10/28 21:34:04;;;;;;;101.35;57.75;;;;;;;;;;5025409;28;20021;-50
2021/10/28 21:36:30;;;;;;;101.07;56.97;;;;;;;;;;5025772;28;20090;-49
2021/10/28 21:38:56;;;;;;;100.38;55.03;;;;;;;;;;5024165;28;20442;-49
2021/10/28 21:41:23;;;;;;;94.90;52.65;;;;;;;;;;5024334;28;20037;-49
2021/10/28 21:43:50;;;;;;;85.40;47.55;;;;;;;;;;5024133;28;20061;-50
2021/10/28 21:46:17;;;;;;;87.40;48.75;;;;;;;;;;5025081;28;20083;-49
2021/10/28 21:48:45;;;;;;;95.55;49.75;;;;;;;;;;5024875;28;20036;-48
2021/10/28 21:51:12;;;;;;;97.20;51.70;;;;;;;;;;5023755;28;20025;-49
2021/10/28 21:53:41;;;;;;;90.72;50.47;;;;;;;;;;5023775;28;20759;-49
2021/10/28 21:56:44;;;;;;;92.35;49.55;;;;;;;;;;5023374;28;20477;-49
2021/10/28 22:26:14;;;;;;;104.80;55.15;;;;;;;;;;5022906;28;20374;-49
2021/10/28 22:28:40;;;;;;;106.22;59.80;;;;;;;;;;5022876;28;20055;-49
2021/10/28 22:31:06;;;;;;;99.35;53.75;;;;;;;;;;5023148;28;20029;-49
2021/10/28 22:33:35;;;;;;;98.35;52.75;;;;;;;;;;5023746;28;20018;-49
2021/10/28 22:36:22;;;;;;;102.63;54.42;;;;;;;;;;5024690;28;20485;-49
2021/10/28 22:38:56;;;;;;;108.43;60.88;;;;;;;;;;5022978;28;20022;-49
2021/10/28 22:41:23;;;;;;;102.97;57.58;;;;;;;;;;5025535;28;20033;-50
2021/10/28 22:43:49;;;;;;;101.00;55.38;;;;;;;;;;5022527;28;20518;-49
2021/10/28 22:46:15;;;;;;;92.38;55.13;;;;;;;;;;5023170;28;20036;-49
2021/10/28 22:48:42;;;;;;;93.57;52.17;;;;;;;;;;5022194;28;20040;-49
2021/10/28 22:51:10;;;;;;;94.10;53.35;;;;;;;;;;5022409;28;20025;-49
2021/10/28 22:53:36;;;;;;;97.93;54.03;;;;;;;;;;5022707;28;20017;-49
2021/10/28 22:56:03;;;;;;;98.40;53.33;;;;;;;;;;5023577;28;20458;-49
2021/10/28 22:58:33;;;;;;;91.28;53.40;;;;;;;;;;5022704;28;20063;-49
2021/10/28 23:01:16;;;;;;;102.90;57.72;;;;;;;;;;5022532;28;20335;-50
2021/10/28 23:07:02;;;;;;;96.03;54.78;;;;;;;;;;5014106;28;20029;-49
2021/10/28 23:23:08;;;;;;;88.20;50.53;;;;;;;;;;4955403;28;20105;-50
2021/10/28 23:25:34;;;;;;;90.88;52.50;;;;;;;;;;4954587;28;20041;-50
2021/10/28 23:28:01;;;;;;;93.90;53.25;;;;;;;;;;4953828;28;20040;-50
2021/10/28 23:30:27;;;;;;;97.93;52.53;;;;;;;;;;4955282;28;20504;-50
2021/10/28 23:32:58;;;;;;;92.32;52.83;;;;;;;;;;4955543;28;20023;-50
2021/10/28 23:35:25;;;;;;;84.95;49.40;;;;;;;;;;4956947;28;20539;-50
2021/10/28 23:37:51;;;;;;;106.97;59.60;;;;;;;;;;4967651;28;20092;-50
2021/10/28 23:40:18;;;;;;;81.10;49.33;;;;;;;;;;4988726;28;20023;-50
2021/10/28 23:42:44;;;;;;;88.28;50.38;;;;;;;;;;4972752;28;20038;-51
2021/10/28 23:45:13;;;;;;;99.07;54.55;;;;;;;;;;4972818;28;20109;-50
2021/10/28 23:47:39;;;;;;;86.30;47.00;;;;;;;;;;4972830;28;20110;-50
2021/10/28 23:50:06;;;;;;;92.00;49.47;;;;;;;;;;4972689;28;20046;-50
2021/10/28 23:52:32;;;;;;;81.20;45.92;;;;;;;;;;4973009;28;20074;-49
2021/10/28 23:54:59;;;;;;;91.78;49.05;;;;;;;;;;5032227;28;20401;-50
2021/10/28 23:57:25;;;;;;;81.45;45.28;;;;;;;;;;5053310;28;20048;-50
2021/10/28 23:59:51;;;;;;;96.43;52.58;;;;;;;;;;5053148;28;20056;-49
